createdAt,value
2018-09-26T00:01:02.021Z,2.13
2018-09-26T00:03:35.976Z,3.20
2018-09-26T00:06:04.450Z,2.40
2018-09-26T00:08:34.051Z,2.60
2018-09-26T00:11:02.509Z,2.30
2018-09-26T00:13:30.936Z,3.00
2018-09-26T00:15:59.401Z,3.07
2018-09-26T00:18:28.378Z,2.17
2018-09-26T00:20:56.821Z,2.20
2018-09-26T00:23:25.245Z,1.90
2018-09-26T00:25:53.678Z,2.93
2018-09-26T00:28:22.102Z,4.30
2018-09-26T00:30:50.616Z,2.23
2018-09-26T00:33:19.032Z,2.87
2018-09-26T00:35:47.585Z,2.37
2018-09-26T00:38:15.965Z,2.93
2018-09-26T00:40:44.426Z,3.17
2018-09-26T00:43:12.860Z,2.37
2018-09-26T00:45:41.317Z,3.00
2018-09-26T00:48:09.761Z,2.47
2018-09-26T00:50:38.202Z,2.33
2018-09-26T00:53:06.645Z,2.27
2018-09-26T00:55:35.102Z,4.37
2018-09-26T00:58:03.539Z,2.97
2018-09-26T01:00:32.001Z,3.97
2018-09-26T01:03:00.421Z,3.00
2018-09-26T01:05:28.895Z,2.97
2018-09-26T01:07:57.326Z,2.60
2018-09-26T01:10:25.816Z,2.60
2018-09-26T01:12:54.261Z,2.60
2018-09-26T01:15:22.705Z,2.77
2018-09-26T01:17:51.396Z,2.80
2018-09-26T01:20:19.858Z,2.53
2018-09-26T01:22:48.329Z,3.30
2018-09-26T01:25:16.754Z,3.17
2018-09-26T01:27:45.199Z,2.97
2018-09-26T01:30:13.626Z,2.90
2018-09-26T01:32:42.164Z,2.50
2018-09-26T01:35:10.601Z,2.60
2018-09-26T01:37:39.058Z,3.30
2018-09-26T01:40:07.781Z,2.90
2018-09-26T01:42:36.264Z,2.13
2018-09-26T01:45:05.361Z,2.47
2018-09-26T01:47:33.797Z,2.10
2018-09-26T01:50:02.238Z,3.10
2018-09-26T01:52:30.737Z,2.20
2018-09-26T01:54:59.153Z,2.80
2018-09-26T01:57:27.611Z,3.07
2018-09-26T01:59:56.047Z,2.33
2018-09-26T02:02:24.534Z,3.83
2018-09-26T02:04:52.946Z,3.03
2018-09-26T02:07:21.402Z,3.00
2018-09-26T02:09:49.846Z,3.50
2018-09-26T02:12:18.264Z,2.60
2018-09-26T02:14:46.723Z,3.10
2018-09-26T02:17:15.197Z,2.70
2018-09-26T02:19:43.630Z,2.07
2018-09-26T02:22:12.055Z,2.80
2018-09-26T02:24:40.510Z,2.60
2018-09-26T02:27:08.983Z,2.07
2018-09-26T02:29:37.429Z,2.47
2018-09-26T02:32:05.976Z,2.97
2018-09-26T02:34:34.425Z,2.10
2018-09-26T02:37:02.923Z,2.23
2018-09-26T02:39:31.381Z,2.30
2018-09-26T02:41:59.853Z,2.40
2018-09-26T02:44:28.284Z,2.27
2018-09-26T02:46:56.722Z,2.80
2018-09-26T02:49:25.314Z,3.60
2018-09-26T02:51:53.854Z,2.20
2018-09-26T02:54:22.321Z,2.63
2018-09-26T02:56:50.777Z,3.33
2018-09-26T02:59:19.241Z,2.63
2018-09-26T03:01:47.695Z,2.77
2018-09-26T03:04:16.117Z,2.63
2018-09-26T03:06:44.588Z,3.13
2018-09-26T03:09:13.018Z,2.80
2018-09-26T03:11:41.472Z,2.73
2018-09-26T03:14:09.917Z,2.20
2018-09-26T03:16:38.345Z,2.30
2018-09-26T03:19:07.215Z,2.07
2018-09-26T03:21:35.638Z,2.70
2018-09-26T03:24:04.125Z,2.57
2018-09-26T03:26:32.552Z,2.40
2018-09-26T03:29:01.018Z,1.77
2018-09-26T03:31:29.471Z,2.27
2018-09-26T03:33:57.965Z,2.50
2018-09-26T03:36:26.406Z,2.47
2018-09-26T03:38:54.847Z,2.30
2018-09-26T03:41:23.284Z,3.07
2018-09-26T03:43:51.726Z,2.70
2018-09-26T03:46:20.164Z,2.63
2018-09-26T03:48:48.580Z,3.77
2018-09-26T03:51:17.082Z,2.40
2018-09-26T03:53:45.498Z,3.13
2018-09-26T03:56:13.946Z,2.40
2018-09-26T03:58:42.404Z,2.67
2018-09-26T04:01:10.869Z,1.97
2018-09-26T04:03:39.376Z,1.70
2018-09-26T04:06:07.831Z,2.70
2018-09-26T04:08:36.277Z,4.20
2018-09-26T04:11:12.244Z,2.10
2018-09-26T04:13:40.677Z,2.53
2018-09-26T04:16:09.145Z,2.27
2018-09-26T04:18:37.561Z,1.80
2018-09-26T04:21:06.040Z,2.30
2018-09-26T04:23:34.485Z,1.80
2018-09-26T04:26:02.920Z,2.10
2018-09-26T04:28:31.465Z,1.77
2018-09-26T04:31:00.012Z,2.10
2018-09-26T04:33:28.560Z,2.13
2018-09-26T04:35:57.887Z,2.23
2018-09-26T04:38:26.375Z,2.10
2018-09-26T04:40:54.874Z,2.60
2018-09-26T04:43:23.424Z,2.67
2018-09-26T04:45:51.870Z,2.47
2018-09-26T04:48:20.369Z,1.80
2018-09-26T04:50:48.841Z,2.70
2018-09-26T04:53:17.277Z,2.80
2018-09-26T04:55:45.755Z,2.43
2018-09-26T04:58:15.034Z,2.87
2018-09-26T05:00:43.513Z,3.30
2018-09-26T05:03:11.959Z,1.80
2018-09-26T05:05:40.429Z,3.63
2018-09-26T05:08:08.942Z,2.30
2018-09-26T05:10:37.417Z,2.63
2018-09-26T05:13:05.922Z,1.83
2018-09-26T05:15:34.389Z,2.57
2018-09-26T05:18:02.874Z,2.30
2018-09-26T05:20:31.539Z,2.53
2018-09-26T05:23:00.047Z,2.20
2018-09-26T05:25:28.510Z,2.77
2018-09-26T05:27:57.016Z,2.43
2018-09-26T05:30:26.328Z,3.27
2018-09-26T05:32:54.767Z,2.50
2018-09-26T05:35:23.198Z,3.27
2018-09-26T05:37:51.797Z,2.73
2018-09-26T05:40:20.261Z,2.50
2018-09-26T05:42:49.269Z,3.00
2018-09-26T05:45:17.719Z,3.30
2018-09-26T05:47:46.171Z,2.53
2018-09-26T05:50:14.806Z,3.00
2018-09-26T05:52:43.265Z,2.73
2018-09-26T05:55:11.753Z,3.53
2018-09-26T05:57:40.452Z,3.30
2018-09-26T06:00:09.396Z,3.50
2018-09-26T06:02:37.862Z,3.17
2018-09-26T06:05:06.794Z,2.97
2018-09-26T06:07:35.269Z,2.67
2018-09-26T06:10:03.841Z,2.67
2018-09-26T06:12:32.288Z,3.63
2018-09-26T06:15:00.749Z,3.13
2018-09-26T06:17:29.180Z,3.20
2018-09-26T06:19:57.645Z,3.77
2018-09-26T06:22:26.120Z,3.47
2018-09-26T06:24:54.589Z,2.93
2018-09-26T06:27:23.050Z,2.77
2018-09-26T06:29:51.497Z,3.70
2018-09-26T06:32:20.037Z,4.23
2018-09-26T06:34:48.574Z,3.20
2018-09-26T06:37:17.077Z,3.00
2018-09-26T06:39:45.543Z,3.47
2018-09-26T06:42:16.756Z,4.57
2018-09-26T06:44:45.206Z,3.50
2018-09-26T06:47:13.745Z,3.40
2018-09-26T06:49:42.191Z,3.40
2018-09-26T06:52:10.754Z,4.30
2018-09-26T06:54:39.186Z,4.90
2018-09-26T06:57:07.707Z,5.53
2018-09-26T06:59:36.246Z,4.37
2018-09-26T07:02:04.776Z,4.17
2018-09-26T07:04:33.444Z,3.77
2018-09-26T07:07:02.028Z,4.83
2018-09-26T07:09:30.469Z,5.80
2018-09-26T07:11:58.967Z,5.27
2018-09-26T07:14:27.464Z,4.60
2018-09-26T07:16:56.137Z,5.43
2018-09-26T07:19:25.343Z,3.10
2018-09-26T07:21:53.823Z,4.23
2018-09-26T07:24:22.301Z,4.93
2018-09-26T07:26:50.773Z,4.47
2018-09-26T07:29:19.233Z,5.90
2018-09-26T07:31:47.705Z,4.20
2018-09-26T07:34:16.188Z,4.97
2018-09-26T07:36:45.277Z,5.03
2018-09-26T07:39:13.739Z,5.40
2018-09-26T07:41:42.891Z,4.80
2018-09-26T07:44:11.400Z,5.27
2018-09-26T07:46:39.884Z,5.73
2018-09-26T07:49:08.349Z,4.87
2018-09-26T07:51:36.805Z,4.30
2018-09-26T07:54:05.302Z,5.67
2018-09-26T07:56:33.750Z,4.53
2018-09-26T07:59:03.236Z,4.97
2018-09-26T08:01:31.669Z,4.50
2018-09-26T08:04:00.161Z,4.40
2018-09-26T08:06:28.652Z,4.20
2018-09-26T08:08:57.089Z,4.20
2018-09-26T08:11:25.638Z,3.90
2018-09-26T08:13:54.057Z,4.50
2018-09-26T08:16:22.514Z,4.87
2018-09-26T08:18:51.000Z,3.93
2018-09-26T08:21:19.464Z,5.10
2018-09-26T08:23:47.943Z,3.70
2018-09-26T08:26:16.400Z,4.30
2018-09-26T08:28:44.902Z,4.07
2018-09-26T08:31:13.445Z,3.47
2018-09-26T08:33:41.987Z,5.33
2018-09-26T08:36:10.570Z,3.73
2018-09-26T08:38:39.682Z,3.80
2018-09-26T08:41:08.281Z,3.23
2018-09-26T08:43:36.822Z,3.40
2018-09-26T08:46:05.396Z,4.40
2018-09-26T08:48:34.012Z,3.20
2018-09-26T08:51:02.488Z,3.67
2018-09-26T08:53:31.110Z,3.53
2018-09-26T08:55:59.717Z,3.13
2018-09-26T08:58:28.333Z,3.60
2018-09-26T09:00:56.831Z,4.00
2018-09-26T09:03:25.282Z,3.00
2018-09-26T09:05:53.764Z,3.53
2018-09-26T09:08:22.241Z,3.60
2018-09-26T09:10:50.747Z,3.50
2018-09-26T09:13:19.222Z,4.90
2018-09-26T09:15:47.733Z,4.43
2018-09-26T09:18:16.191Z,3.97
2018-09-26T09:20:44.663Z,4.00
2018-09-26T09:23:13.127Z,4.57
2018-09-26T09:25:42.153Z,3.50
2018-09-26T09:28:10.635Z,2.77
2018-09-26T09:30:39.113Z,3.17
2018-09-26T09:33:07.636Z,3.57
2018-09-26T09:35:36.133Z,3.00
2018-09-26T09:38:04.741Z,2.73
2018-09-26T09:40:33.254Z,3.10
2018-09-26T09:43:01.772Z,2.20
2018-09-26T09:45:30.471Z,1.27
2018-09-26T09:47:58.929Z,2.10
2018-09-26T09:50:27.443Z,1.10
2018-09-26T09:52:55.997Z,1.30
2018-09-26T09:55:24.464Z,1.07
2018-09-26T09:57:52.945Z,0.73
2018-09-26T10:00:26.077Z,0.90
2018-09-26T10:02:54.759Z,0.80
2018-09-26T10:05:23.002Z,1.20
2018-09-26T10:07:51.460Z,0.70
2018-09-26T10:10:19.889Z,0.87
2018-09-26T10:12:48.345Z,0.93
2018-09-26T10:15:16.826Z,1.10
2018-09-26T10:17:45.347Z,0.87
2018-09-26T10:20:13.974Z,0.93
2018-09-26T10:22:42.365Z,0.93
2018-09-26T10:25:10.972Z,0.90
2018-09-26T10:27:39.374Z,0.93
2018-09-26T10:30:08.231Z,1.17
2018-09-26T10:32:36.867Z,1.17
2018-09-26T10:35:05.416Z,1.20
2018-09-26T10:37:33.849Z,1.13
2018-09-26T10:40:02.310Z,2.50
2018-09-26T10:42:30.766Z,1.30
2018-09-26T10:44:59.245Z,1.90
2018-09-26T10:47:27.767Z,1.30
2018-09-26T10:49:56.232Z,1.43
2018-09-26T10:52:24.672Z,1.40
2018-09-26T10:54:53.150Z,1.27
2018-09-26T10:57:21.617Z,1.57
2018-09-26T10:59:50.973Z,1.03
2018-09-26T11:02:19.530Z,1.10
2018-09-26T11:04:47.927Z,1.10
2018-09-26T11:07:16.421Z,1.20
2018-09-26T11:09:44.900Z,1.93
2018-09-26T11:12:13.369Z,1.60
2018-09-26T11:14:41.824Z,1.57
2018-09-26T11:17:10.306Z,2.33
2018-09-26T11:19:38.752Z,1.67
2018-09-26T11:22:07.270Z,1.57
2018-09-26T11:24:36.502Z,1.80
2018-09-26T11:27:04.975Z,1.70
2018-09-26T11:29:33.466Z,1.90
2018-09-26T11:32:01.935Z,1.70
2018-09-26T11:34:30.429Z,1.83
2018-09-26T11:36:58.863Z,1.50
2018-09-26T11:39:27.361Z,1.37
2018-09-26T11:41:55.845Z,1.20
2018-09-26T11:44:24.453Z,1.73
2018-09-26T11:46:53.537Z,2.63
2018-09-26T11:49:22.082Z,3.40
2018-09-26T11:51:50.590Z,1.47
2018-09-26T11:54:19.044Z,1.70
2018-09-26T11:56:47.504Z,1.70
2018-09-26T11:59:15.974Z,1.97
2018-09-26T12:01:44.453Z,1.67
2018-09-26T12:04:12.939Z,1.40
2018-09-26T12:06:41.356Z,1.37
2018-09-26T12:09:10.157Z,1.30
2018-09-26T12:11:38.644Z,2.13
2018-09-26T12:14:07.121Z,1.33
2018-09-26T12:16:35.609Z,1.70
2018-09-26T12:19:04.056Z,1.93
2018-09-26T12:21:32.599Z,1.17
2018-09-26T12:24:01.042Z,1.67
2018-09-26T12:26:29.553Z,1.70
2018-09-26T12:28:58.037Z,1.17
2018-09-26T12:31:26.550Z,2.50
2018-09-26T12:33:55.012Z,1.97
2018-09-26T12:36:23.543Z,1.70
2018-09-26T12:38:52.005Z,2.10
2018-09-26T12:41:20.421Z,1.63
2018-09-26T12:43:49.130Z,1.80
2018-09-26T12:46:17.560Z,1.93
2018-09-26T12:48:46.057Z,1.67
2018-09-26T12:51:14.504Z,1.70
2018-09-26T12:53:43.115Z,1.93
2018-09-26T12:56:11.530Z,2.20
2018-09-26T12:58:40.014Z,1.80
2018-09-26T13:01:08.477Z,1.97
2018-09-26T13:03:37.069Z,1.60
2018-09-26T13:06:05.726Z,3.83
2018-09-26T13:08:34.153Z,2.20
2018-09-26T13:11:02.858Z,2.60
2018-09-26T13:13:31.613Z,1.73
2018-09-26T13:16:00.926Z,2.57
2018-09-26T13:18:29.394Z,1.63
2018-09-26T13:20:57.825Z,1.90
2018-09-26T13:23:26.280Z,2.23
2018-09-26T13:25:54.809Z,1.67
2018-09-26T13:28:23.287Z,2.60
2018-09-26T13:30:51.779Z,2.60
2018-09-26T13:33:20.237Z,2.30
2018-09-26T13:35:48.724Z,2.77
2018-09-26T13:38:17.228Z,2.33
2018-09-26T13:40:45.676Z,2.40
2018-09-26T13:43:14.166Z,2.47
2018-09-26T13:45:42.856Z,2.10
2018-09-26T13:48:11.372Z,2.30
2018-09-26T13:50:39.831Z,2.40
2018-09-26T13:53:08.317Z,2.50
2018-09-26T13:55:36.787Z,3.60
2018-09-26T13:58:05.735Z,2.37
2018-09-26T14:00:34.565Z,2.87
2018-09-26T14:03:03.122Z,2.40
2018-09-26T14:05:32.073Z,2.00
2018-09-26T14:08:00.570Z,1.93
2018-09-26T14:10:29.130Z,2.30
2018-09-26T14:12:57.551Z,2.63
2018-09-26T14:15:26.164Z,2.87
2018-09-26T14:17:54.643Z,2.53
2018-09-26T14:20:23.178Z,2.53
2018-09-26T14:22:51.813Z,2.70
2018-09-26T14:25:20.156Z,2.50
2018-09-26T14:27:48.657Z,2.47
2018-09-26T14:30:17.224Z,2.73
2018-09-26T14:32:45.688Z,3.00
2018-09-26T14:35:14.203Z,2.23
2018-09-26T14:37:42.978Z,2.07
2018-09-26T14:40:11.573Z,2.23
2018-09-26T14:42:40.034Z,2.30
2018-09-26T14:45:08.615Z,2.30
2018-09-26T14:47:37.121Z,2.20
2018-09-26T14:50:06.194Z,1.90
2018-09-26T14:52:34.681Z,2.30
2018-09-26T14:55:03.239Z,2.97
2018-09-26T14:57:31.682Z,2.40
2018-09-26T15:00:00.153Z,2.47
2018-09-26T15:02:28.666Z,2.37
2018-09-26T15:04:57.145Z,2.43
2018-09-26T15:07:25.633Z,2.33
2018-09-26T15:09:54.100Z,2.60
2018-09-26T15:12:22.580Z,2.63
2018-09-26T15:14:51.016Z,2.63
2018-09-26T15:17:19.479Z,2.40
2018-09-26T15:19:48.012Z,2.37
2018-09-26T15:22:16.525Z,3.23
2018-09-26T15:24:44.910Z,2.80
2018-09-26T15:27:13.822Z,2.33
2018-09-26T15:29:42.325Z,1.70
2018-09-26T15:32:11.318Z,2.37
2018-09-26T15:34:39.778Z,2.10
2018-09-26T15:37:08.262Z,2.27
2018-09-26T15:39:36.718Z,1.80
2018-09-26T15:42:05.230Z,1.63
2018-09-26T15:44:33.665Z,1.80
2018-09-26T15:47:02.175Z,1.83
2018-09-26T15:49:30.650Z,1.70
2018-09-26T15:51:59.108Z,1.77
2018-09-26T15:54:27.638Z,1.23
2018-09-26T15:56:56.221Z,2.00
2018-09-26T15:59:24.678Z,1.63
2018-09-26T16:01:53.843Z,2.00
2018-09-26T16:04:23.495Z,1.70
2018-09-26T16:06:51.895Z,1.80
2018-09-26T16:09:20.356Z,2.30
2018-09-26T16:11:48.791Z,1.90
2018-09-26T16:14:17.325Z,2.43
2018-09-26T16:16:45.694Z,2.20
2018-09-26T16:19:14.195Z,2.60
2018-09-26T16:21:42.664Z,2.23
2018-09-26T16:24:11.107Z,2.30
2018-09-26T16:26:39.602Z,2.30
2018-09-26T16:29:08.076Z,1.80
2018-09-26T16:31:36.591Z,2.13
2018-09-26T16:34:05.060Z,1.90
2018-09-26T16:36:33.603Z,2.10
2018-09-26T16:39:02.084Z,2.23
2018-09-26T16:41:30.528Z,2.30
2018-09-26T16:43:58.980Z,2.03
2018-09-26T16:46:27.568Z,2.13
2018-09-26T16:48:55.988Z,2.57
2018-09-26T16:51:24.445Z,3.00
2018-09-26T16:53:52.959Z,2.43
2018-09-26T16:56:21.540Z,1.60
2018-09-26T16:58:50.014Z,2.30
2018-09-26T17:01:18.517Z,2.00
2018-09-26T17:03:47.013Z,2.20
2018-09-26T17:06:15.597Z,2.53
2018-09-26T17:08:44.019Z,2.43
2018-09-26T17:11:12.834Z,2.03
2018-09-26T17:13:41.508Z,1.60
2018-09-26T17:16:10.003Z,2.27
2018-09-26T17:18:38.413Z,2.60
2018-09-26T17:21:06.982Z,2.50
2018-09-26T17:23:35.475Z,2.00
2018-09-26T17:26:03.938Z,3.00
2018-09-26T17:28:32.449Z,2.40
2018-09-26T17:31:00.978Z,3.07
2018-09-26T17:33:29.472Z,2.60
2018-09-26T17:35:57.944Z,2.70
2018-09-26T17:38:26.382Z,3.20
2018-09-26T17:40:54.861Z,2.10
2018-09-26T17:43:23.370Z,2.33
